Avalon, PA

2:58 PM EST on March 05, 2015 (GMT -0500)
Pittsburgh International | Change Station
CLOSE
Current Station
Airport
Location: Pittsburgh,
Elevation: 1201 ft
Nearby Weather Stations

Elev 1201 ft 40.48 °N, 80.21 °W | Updated 7 minutes ago

Overcast
Overcast
16 °F
Feels Like 2 °F
N
13
Wind Variable Wind from North

Today
High -- | Low -- °F
--% Chance of Precip.
Yesterday
High -- | Low -- °F
Precip. -- in
6:48 AM 6:15 PM
Full, 100% visible
Pressure 30.35 in
Visibility 10.0 miles
Clouds Mostly Cloudy 10000 ft
Overcast 22000 ft
Windchill 2 °F
Dew Point 1 °F
Humidity 52%
Rainfall 0.03 in
Snow Depth Not available.
UV 1 out of 12
Pollen .60 out of 12
Air Quality Not available.
Flu Activity Not available.
METAR KPIT 051951Z 35011KT 10SM BKN100 OVC220 M09/M17 A3026 RMK AO2 SLP275 T10891172

More Conditions Fewer Conditions

Pressure 30.35 in
Visibility 10.0 miles
Clouds Mostly Cloudy 10000 ft
Overcast 22000 ft
Windchill 2 °F
Dew Point 1 °F
Humidity 52%
Rainfall 0.03 in
Snow Depth Not available.
UV 1 out of 12
Pollen .60 out of 12
Air Quality Not available.
Flu Activity Not available.
METAR KPIT 051951Z 35011KT 10SM BKN100 OVC220 M09/M17 A3026 RMK AO2 SLP275 T10891172

More Conditions Fewer Conditions

10-Day Weather Forecast

Almanac

Astronomy

Mar. 05, 2015 Rise Set
Actual Time
Civil Twilight
Nautical Twilight
Astronomical Twilight
Moon
Length of Visible Light
Length of Day
Tomorrow will be .
, % of the Moon is Illuminated

Today's Extremes

State Highs State Lows

Community

WunderPhotos

Upload Photos

1,802,929 photos uploaded!

WunderBlogs® & News

Nearby

Air Quality

  Air Quality AQ Index Pollutant
Not available.

Snow Depth

Station Depth Elevation

Earthquake Activity

City Distance Mag. Time & Date
Minimum magnitude displayed is 2.5.

Coastal Water Temperatures

Place Temperature

Nearby Weather Stations

Flood Warning
Statement as of 11:14 AM EST on March 05, 2015

The river Flood Warning continues for,
the Monongahela river near Elizabeth.
* Until late tonight, or until the warning is cancelled.
* At 10:15 am Thursday the stage was 23.6 feet.
* Flood stage is 20.0 feet.
* Moderate flooding is occurring and minor flooding is forecast.
* Forecast... the river will continue to fall to below flood stage by
tonight.
* Impact... at 23.0 feet, Industrial chemical corporation plant floods.


Lat... Lon 4026 7994 4032 7988 4029 7984 4025 7990





Flood Advisory
Statement as of 1:30 PM EST on March 05, 2015

The Flood Advisory continues for
the Ohio River at Pittsburgh.
* Until Friday morning.
* At 1pm Thursday the stage was 21.7 feet.
* Flood stage is 25.0 feet.
* Forecast... the river will fall to near 21.4 feet this evening.
* Impact... at 22.0 feet, the tenth street bypass floods.


Lat... Lon 4043 7999 4045 8005 4047 8003 4045 8001
      4046 7999 4045 7998